createdAt,value
2023-02-12T00:01:25.782Z,6.20
2023-02-12T00:03:53.456Z,7.28
2023-02-12T00:06:21.001Z,7.03
2023-02-12T00:08:51.522Z,7.53
2023-02-12T00:11:21.656Z,7.23
2023-02-12T00:13:49.656Z,7.80
2023-02-12T00:16:20.250Z,7.45
2023-02-12T00:18:48.187Z,5.97
2023-02-12T00:21:15.433Z,6.68
2023-02-12T00:23:42.912Z,7.07
2023-02-12T00:26:16.996Z,6.43
2023-02-12T00:28:49.039Z,7.22
2023-02-12T00:31:20.514Z,6.70
2023-02-12T00:33:49.001Z,6.35
2023-02-12T00:36:19.581Z,6.10
2023-02-12T00:38:48.098Z,6.35
2023-02-12T00:41:15.962Z,6.35
2023-02-12T00:43:43.225Z,6.10
2023-02-12T00:46:10.666Z,6.40
2023-02-12T00:48:38.174Z,5.28
2023-02-12T00:51:05.985Z,4.82
2023-02-12T00:53:34.216Z,6.10
2023-02-12T00:56:02.128Z,5.30
2023-02-12T00:58:29.431Z,5.32
2023-02-12T01:00:56.766Z,5.28
2023-02-12T01:03:25.197Z,5.82
2023-02-12T01:05:53.520Z,4.82
2023-02-12T01:08:21.954Z,5.63
2023-02-12T01:11:03.590Z,4.50
2023-02-12T01:13:32.457Z,4.45
2023-02-12T01:16:09.112Z,4.70
2023-02-12T01:18:37.882Z,4.68
2023-02-12T01:21:15.042Z,5.35
2023-02-12T01:23:43.284Z,5.38
2023-02-12T01:26:11.821Z,5.70
2023-02-12T01:28:44.124Z,6.20
2023-02-12T01:31:20.592Z,6.55
2023-02-12T01:33:50.200Z,6.78
2023-02-12T01:36:17.915Z,6.45
2023-02-12T01:38:47.526Z,5.90
2023-02-12T01:41:26.930Z,6.30
2023-02-12T01:44:12.377Z,6.63
2023-02-12T01:46:40.433Z,7.03
2023-02-12T01:49:14.328Z,6.40
2023-02-12T01:51:42.804Z,6.20
2023-02-12T01:54:13.659Z,6.53
2023-02-12T01:56:42.373Z,6.68
2023-02-12T01:59:11.968Z,7.35
2023-02-12T02:01:39.569Z,5.95
2023-02-12T02:04:13.600Z,6.80
2023-02-12T02:06:59.538Z,7.05
2023-02-12T02:09:28.613Z,6.22
2023-02-12T02:12:14.978Z,5.93
2023-02-12T02:14:43.263Z,6.28
2023-02-12T02:17:24.376Z,6.13
2023-02-12T02:20:12.676Z,5.65
2023-02-12T02:23:09.801Z,5.88
2023-02-12T02:25:37.311Z,6.07
2023-02-12T02:28:19.968Z,6.22
2023-02-12T02:30:51.656Z,6.63
2023-02-12T02:33:21.889Z,6.05
2023-02-12T02:36:05.553Z,5.97
2023-02-12T02:39:13.979Z,5.53
2023-02-12T02:41:49.598Z,5.97
2023-02-12T02:44:32.812Z,5.65
2023-02-12T02:47:02.690Z,5.45
2023-02-12T02:49:40.668Z,6.25
2023-02-12T02:52:12.512Z,5.50
2023-02-12T02:54:48.908Z,6.22
2023-02-12T02:57:28.829Z,6.47
2023-02-12T03:00:04.295Z,5.85
2023-02-12T03:02:38.949Z,6.05
2023-02-12T03:05:16.224Z,6.13
2023-02-12T03:08:01.626Z,5.43
2023-02-12T03:10:38.725Z,5.60
2023-02-12T03:13:37.934Z,6.50
2023-02-12T03:16:26.622Z,5.90
2023-02-12T03:19:02.523Z,5.75
2023-02-12T03:21:48.624Z,5.60
2023-02-12T03:24:28.405Z,6.22
2023-02-12T03:27:11.772Z,5.80
2023-02-12T03:29:39.608Z,5.57
2023-02-12T03:32:06.933Z,5.82
2023-02-12T03:34:48.478Z,6.07
2023-02-12T03:40:20.909Z,6.03
2023-02-12T03:43:20.765Z,5.60
2023-02-12T03:45:48.060Z,5.53
2023-02-12T03:48:37.491Z,5.60
2023-02-12T03:51:29.128Z,6.30
2023-02-12T03:56:36.590Z,6.28
2023-02-12T03:59:04.942Z,5.18
2023-02-12T04:01:34.404Z,5.47
2023-02-12T04:04:06.123Z,5.75
2023-02-12T04:06:34.273Z,5.65
2023-02-12T04:09:11.453Z,5.57
2023-02-12T04:11:41.783Z,4.75
2023-02-12T04:14:15.462Z,4.78
2023-02-12T04:16:54.834Z,4.72
2023-02-12T04:19:51.508Z,5.32
2023-02-12T04:22:45.714Z,5.70
2023-02-12T04:25:49.066Z,5.68
2023-02-12T04:28:48.976Z,4.82
2023-02-12T04:31:23.235Z,5.15
2023-02-12T04:33:56.839Z,5.18
2023-02-12T04:36:30.062Z,5.03
2023-02-12T04:39:11.275Z,5.38
2023-02-12T04:41:42.015Z,4.82
2023-02-12T04:44:38.432Z,5.10
2023-02-12T04:47:05.931Z,4.20
2023-02-12T04:49:33.274Z,4.65
2023-02-12T04:52:00.813Z,4.47
2023-02-12T04:54:28.147Z,4.90
2023-02-12T04:56:57.430Z,5.03
2023-02-12T04:59:24.715Z,5.75
2023-02-12T05:01:52.397Z,6.18
2023-02-12T05:04:20.335Z,5.05
2023-02-12T05:06:54.873Z,4.90
2023-02-12T05:09:22.141Z,4.50
2023-02-12T05:11:49.754Z,4.90
2023-02-12T05:14:16.964Z,4.57
2023-02-12T05:16:44.361Z,4.90
2023-02-12T05:19:12.272Z,4.50
2023-02-12T05:21:39.719Z,5.35
2023-02-12T05:24:07.559Z,4.78
2023-02-12T05:26:35.859Z,4.30
2023-02-12T05:29:03.650Z,5.35
2023-02-12T05:31:31.372Z,5.03
2023-02-12T05:33:59.918Z,5.05
2023-02-12T05:36:27.338Z,4.80
2023-02-12T05:38:58.746Z,5.07
2023-02-12T05:43:53.968Z,5.47
2023-02-12T05:46:22.564Z,4.88
2023-02-12T05:48:50.070Z,5.10
2023-02-12T05:51:22.019Z,4.53
2023-02-12T05:53:56.088Z,4.28
2023-02-12T05:56:26.091Z,5.40
2023-02-12T05:59:21.912Z,4.68
2023-02-12T06:01:51.606Z,5.38
2023-02-12T06:04:25.641Z,5.50
2023-02-12T06:06:54.246Z,4.10
2023-02-12T06:09:22.035Z,3.92
2023-02-12T06:11:49.371Z,4.95
2023-02-12T06:14:19.699Z,5.53
2023-02-12T06:16:51.690Z,5.05
2023-02-12T06:19:20.363Z,5.10
2023-02-12T06:21:47.663Z,4.68
2023-02-12T06:24:16.486Z,5.70
2023-02-12T06:26:44.103Z,5.80
2023-02-12T06:29:13.351Z,6.40
2023-02-12T06:31:41.221Z,5.90
2023-02-12T06:34:10.605Z,5.82
2023-02-12T06:36:40.427Z,5.43
2023-02-12T06:39:08.600Z,5.57
2023-02-12T06:41:35.920Z,5.43
2023-02-12T06:44:03.825Z,5.55
2023-02-12T06:46:31.659Z,4.82
2023-02-12T06:49:00.766Z,5.45
2023-02-12T06:51:29.465Z,5.75
2023-02-12T06:53:57.907Z,5.93
2023-02-12T06:56:26.265Z,5.60
2023-02-12T06:58:56.922Z,6.28
2023-02-12T07:01:27.397Z,6.63
2023-02-12T07:04:04.960Z,5.82
2023-02-12T07:06:34.993Z,6.50
2023-02-12T07:09:03.496Z,5.32
2023-02-12T07:11:36.872Z,6.88
2023-02-12T07:14:07.457Z,5.45
2023-02-12T07:16:34.912Z,5.95
2023-02-12T07:19:02.304Z,7.35
2023-02-12T07:21:29.521Z,6.60
2023-02-12T07:23:56.760Z,5.45
2023-02-12T07:26:24.509Z,6.22
2023-02-12T07:28:52.107Z,6.03
2023-02-12T07:31:23.961Z,6.40
2023-02-12T07:33:55.840Z,6.97
2023-02-12T07:36:24.233Z,7.45
2023-02-12T07:38:51.509Z,7.18
2023-02-12T07:41:30.403Z,6.95
2023-02-12T07:44:10.429Z,6.95
2023-02-12T07:46:46.220Z,7.55
2023-02-12T07:49:18.884Z,7.22
2023-02-12T07:51:47.180Z,8.48
2023-02-12T07:54:15.009Z,8.07
2023-02-12T07:56:43.761Z,7.10
2023-02-12T07:59:12.906Z,7.10
2023-02-12T08:01:44.207Z,5.95
2023-02-12T08:04:14.068Z,6.32
2023-02-12T08:06:43.649Z,7.45
2023-02-12T08:09:13.995Z,7.13
2023-02-12T08:11:42.636Z,9.00
2023-02-12T08:14:13.136Z,15.95
2023-02-12T08:16:41.806Z,12.30
2023-02-12T08:19:18.606Z,14.38
2023-02-12T08:21:51.207Z,9.45
2023-02-12T08:24:18.965Z,7.38
2023-02-12T08:26:46.296Z,7.10
2023-02-12T08:29:17.434Z,6.95
2023-02-12T08:31:47.451Z,4.95
2023-02-12T08:34:21.443Z,5.43
2023-02-12T08:36:50.563Z,5.85
2023-02-12T08:39:19.237Z,5.63
2023-02-12T08:41:47.121Z,5.78
2023-02-12T08:44:15.430Z,5.90
2023-02-12T08:46:48.326Z,5.20
2023-02-12T08:49:18.172Z,3.90
2023-02-12T08:51:48.888Z,3.90
2023-02-12T08:54:22.721Z,4.32
2023-02-12T08:56:50.997Z,5.45
2023-02-12T08:59:18.873Z,5.38
2023-02-12T09:01:46.176Z,5.25
2023-02-12T09:04:21.699Z,4.47
2023-02-12T09:06:50.077Z,4.38
2023-02-12T09:09:18.148Z,4.75
2023-02-12T09:11:45.816Z,4.57
2023-02-12T09:14:16.567Z,4.00
2023-02-12T09:16:43.962Z,4.05
2023-02-12T09:19:13.567Z,4.60
2023-02-12T09:21:41.380Z,3.60
2023-02-12T09:24:08.863Z,4.00
2023-02-12T09:26:36.333Z,3.67
2023-02-12T09:29:04.892Z,3.72
2023-02-12T09:31:33.605Z,3.33
2023-02-12T09:34:04.053Z,3.50
2023-02-12T09:52:12.748Z,4.90
2023-02-12T09:54:41.516Z,4.63
2023-02-12T09:57:38.889Z,4.72
2023-02-12T10:00:08.435Z,4.25
2023-02-12T10:02:40.827Z,5.00
2023-02-12T10:05:35.126Z,4.10
2023-02-12T10:08:14.993Z,4.05
2023-02-12T10:11:00.682Z,3.38
2023-02-12T10:13:37.213Z,3.80
2023-02-12T10:16:32.722Z,3.22
2023-02-12T10:19:17.774Z,2.78
2023-02-12T10:22:17.516Z,2.22
